weather station
Area: 7197 km2
The highest point: Čupec (819 m.s.l.)
Total stations: 35
Stations online: 34
Stations offline: 1
Current weather
6°C

Meteorological map - weather stations in Jihomoravský

. The meteorological maps show weather information from WARIO weather stations

Weather stations Jihomoravský

 UpdatesNameStatusTemperatureHumidityWind speedWind direction
21.4.2024 13:38Adamov2.4 °C65.4 %4.5 m/s NW
21.4.2024 13:38Olešnice3.7 °C69.1 %2.6 m/s S
21.4.2024 13:39Archlebov4.2 °C75.2 %3.0 m/s E
21.4.2024 13:38Hustopeče7.3 °C57.0 %2.4 m/s SE
21.4.2024 13:38Boskovice5.0 °C54.5 %1.8 m/s E
21.4.2024 13:38Brno - Královo Pole5.2 °C62.7 %0.0 m/s W
21.4.2024 13:39Brno-Líšeň5.0 °C61.8 %2.2 m/s NE
21.4.2024 13:39Brno - Řečkovice5.1 °C54.3 %2.0 m/s NE
21.4.2024 13:39Brno - Vinohrady5.3 °C62.8 %0.0 m/s W
21.4.2024 13:38Brno-Kníničky8.7 °C55.0 %0.0 m/s NE
21.4.2024 13:39Bzenec4.8 °C63.5 %1.5 m/s S
21.4.2024 13:39Nížkovice5.5 °C63.6 %1.5 m/s SE
21.4.2024 13:39Lesní Hluboké 9.9 °C49.9 %1.6 m/s W
21.4.2024 13:39Brno - Lesná5.5 °C58.9 %2.2 m/s NW
21.4.2024 13:39Olešnice3.0 °C62.1 %2.4 m/s NE
21.4.2024 13:38Dolní Dubňany7.8 °C47.5 %1.7 m/s SW
21.4.2024 13:39Brno - Jih6.1 °C53.7 %2.9 m/s NE
21.4.2024 13:39Mikulov6.7 °C60.9 %2.9 m/s E
21.4.2024 13:39Mutěnice4.2 °C72.1 %3.7 m/s NE
21.4.2024 13:38Blansko °C %1.5 m/s N
21.4.2024 13:34Pohořelice6.7 °C52.2 %3.5 m/s W
21.4.2024 13:38Pozořice4.6 °C68.6 %2.0 m/s N
21.4.2024 13:39Brno - Přízřenice5.6 °C57.6 %2.5 m/s S
21.4.2024 13:38Brno - Jih7.5 °C53.7 %2.0 m/s N
21.4.2024 13:38Šlapanice6.4 °C68.0 %1.0 m/s N
21.4.2024 13:38Strážnice GUMEX3.1 °C72.4 %6.1 m/s S
21.4.2024 13:39Němčičky4.9 °C66.9 %2.6 m/s W
21.4.2024 13:39Předklášteří5.9 °C50.5 %1.9 m/s W
21.4.2024 13:39Veselí nad Moravou2.8 °C67.7 %5.2 m/s W
20.4.2024 14:47Veselí nad Moravou3.7 °C99.9 %1.9 m/s W
21.4.2024 13:39Kněževes Veselka1.3 °C66.5 %4.0 m/s N
21.4.2024 13:39Lipov - Vinařství a penzion Kostelanský2.9 °C75.6 %2.5 m/s S
21.4.2024 13:39Višňové14.1 °C30.8 %0.0 m/s W
21.4.2024 13:38Vlasatice7.1 °C48.3 %0.0 m/s W
21.4.2024 13:39Žarošice6.0 °C68.6 %2.7 m/s NW
Email notifications
Enter your email address to subscribe to notifications about news at warioweather.com. Your email address will not be used for any purpose other than sending these emails and will not be provided to any third party. The subscription can be ended at any time.
All data are only indicative. The portal administrator has no responsibility for potentially incorrect data and related consequences. Publishing or further sharing of content from www.warioweather.com is only allowed with written consent from WANET s.r.o.